Startpagina
METAR-TAF:

METAR-TAF

Vliegvelden :

Lucius D. Clay Kaserne

Wiesbaden, Duitsland

breedte: 50-03N, lengte: 008-20E, hoogte: 140 m

Actueel weer

Dit bericht is 52 minuten geleden gemaakt, om 02:56 UTC
Weinig wind
Temperatuur 4°C
Vochtigheid 87%
Druk 1022 hPa
Zicht 10 km of meer
Weinig wolken op 2100 ft

METAR: ETOU 120256Z AUTO 00000KT 9999 FEW021 04/02 A3018 RMK AO2 SLP228 T00370019 52019

Tijdstip: 05:48 (03:48 UTC)

Verwachting

Dit bericht is 8 uur en het 18 minuten geleden gemaakt, om 19:30 UTC
Verwachting geldig van 11 om 14 UTC tot 12 om 20 UTC
Wind 10 kt uit het noordwesten met uitschieters tot 15 kt
Zicht: 9000 m
Verspreide wolken op 2500 ft
Geheel bewolkt op 3000 ft
lichte regen
Wijzigt naar
van 12 om 07 UTC tot 12 om 08 UTC
Wind 12 kt uit het noordwesten
Zicht: 1204 m
Verspreide wolken op 2500 ft

TAF: ETOU 111930Z 1114/1220 32010G15KT 9000 -RA SCT025 OVC030 QNH29796NS BECMG 1207/1208 32012KT 9999 SCT025 QNH3027INS TX10/1213Z TN02/1205Z LAST NO AMDS AFT 1120 NEXT 1204

Waarnemingen en weersverwachtingen van meer dan 4000 vliegvelden (METAR en TAF).

De beschikbare stations zijn de gele en rode punten op de kaart.

Ga met uw muis naar het station om de naam te zien.

Klik dan om waarnemingen en weersverwachtingen te zien.

kaart wijzigen: klik op de groene knoppen met een zwart kruis om in te zoomen, op de groene knop met een streepje om uit te zoomen of op de groene pijlen voor aangrenzende kaarten.


METAR-TAF: